createdAt,value
2019-04-21T00:00:45.653Z,15.64
2019-04-21T00:03:16.450Z,15.41
2019-04-21T00:05:52.976Z,15.41
2019-04-21T00:08:27.052Z,15.36
2019-04-21T00:10:48.666Z,15.36
2019-04-21T00:13:08.093Z,15.28
2019-04-21T00:15:29.002Z,15.29
2019-04-21T00:17:51.827Z,15.27
2019-04-21T00:20:27.418Z,15.27
2019-04-21T00:22:53.357Z,15.25
2019-04-21T00:25:23.544Z,15.05
2019-04-21T00:27:51.707Z,15.04
2019-04-21T00:30:22.756Z,15.10
2019-04-21T00:32:39.558Z,15.03
2019-04-21T00:35:00.885Z,15.01
2019-04-21T00:37:30.147Z,15.00
2019-04-21T00:40:12.488Z,15.02
2019-04-21T00:42:30.261Z,14.76
2019-04-21T00:45:00.770Z,14.74
2019-04-21T00:47:27.981Z,14.78
2019-04-21T00:49:52.653Z,14.58
2019-04-21T00:52:28.829Z,14.59
2019-04-21T00:54:58.601Z,14.47
2019-04-21T00:57:17.508Z,14.19
2019-04-21T00:59:46.471Z,14.23
2019-04-21T01:02:06.648Z,14.19
2019-04-21T01:04:37.106Z,14.06
2019-04-21T01:07:02.376Z,13.94
2019-04-21T01:09:27.587Z,13.84
2019-04-21T01:11:56.396Z,13.37
2019-04-21T01:14:32.819Z,13.78
2019-04-21T01:16:56.142Z,13.88
2019-04-21T01:19:10.744Z,13.71
2019-04-21T01:21:19.375Z,13.64
2019-04-21T01:23:44.546Z,13.73
2019-04-21T01:26:25.311Z,13.69
2019-04-21T01:28:54.521Z,13.90
2019-04-21T01:31:17.116Z,13.69
2019-04-21T01:33:50.387Z,13.71
2019-04-21T01:36:14.499Z,13.77
2019-04-21T01:39:03.508Z,13.48
2019-04-21T01:41:16.144Z,13.40
2019-04-21T01:43:33.701Z,13.46
2019-04-21T01:45:58.959Z,13.25
2019-04-21T01:48:21.542Z,13.31
2019-04-21T01:50:51.274Z,13.36
2019-04-21T01:53:24.326Z,13.34
2019-04-21T01:56:05.874Z,13.28
2019-04-21T01:58:18.454Z,13.16
2019-04-21T02:00:50.180Z,13.04
2019-04-21T02:03:34.391Z,13.02
2019-04-21T02:05:51.385Z,12.78
2019-04-21T02:08:13.459Z,12.73
2019-04-21T02:10:46.475Z,12.74
2019-04-21T02:13:04.869Z,12.85
2019-04-21T02:15:36.036Z,12.88
2019-04-21T02:17:59.488Z,12.74
2019-04-21T02:20:20.694Z,12.59
2019-04-21T02:23:10.011Z,12.73
2019-04-21T02:25:21.785Z,12.90
2019-04-21T02:27:55.065Z,12.85
2019-04-21T02:30:21.750Z,12.89
2019-04-21T02:32:47.999Z,12.92
2019-04-21T02:35:25.118Z,12.85
2019-04-21T02:37:46.774Z,12.90
2019-04-21T02:40:14.671Z,12.84
2019-04-21T02:42:41.883Z,12.85
2019-04-21T02:44:59.865Z,12.84
2019-04-21T02:47:37.231Z,12.76
2019-04-21T02:50:07.438Z,12.80
2019-04-21T02:52:23.383Z,12.75
2019-04-21T02:57:22.659Z,12.61
2019-04-21T03:02:17.020Z,12.60
2019-04-21T03:04:46.746Z,12.49
2019-04-21T03:09:37.053Z,12.43
2019-04-21T03:12:14.189Z,12.28
2019-04-21T03:16:58.216Z,12.39
2019-04-21T03:19:41.660Z,12.34
2019-04-21T03:22:02.968Z,12.40
2019-04-21T03:24:17.685Z,12.50
2019-04-21T03:27:01.494Z,12.40
2019-04-21T03:29:19.726Z,12.42
2019-04-21T03:32:05.953Z,12.38
2019-04-21T03:36:52.911Z,12.47
2019-04-21T03:38:53.328Z,12.34
2019-04-21T03:41:32.245Z,12.32
2019-04-21T03:43:50.111Z,12.30
2019-04-21T03:46:28.247Z,12.29
2019-04-21T03:48:51.703Z,12.10
2019-04-21T03:51:18.929Z,12.02
2019-04-21T03:56:00.660Z,11.81
2019-04-21T03:58:47.048Z,11.88
2019-04-21T04:01:13.190Z,11.74
2019-04-21T04:03:55.373Z,11.59
2019-04-21T04:08:52.561Z,11.49
2019-04-21T04:16:07.070Z,11.22
2019-04-21T04:18:39.415Z,10.99
2019-04-21T04:20:51.287Z,10.98
2019-04-21T04:25:43.783Z,10.46
2019-04-21T04:28:28.058Z,10.82
2019-04-21T04:30:37.841Z,10.59
2019-04-21T04:33:14.222Z,10.70
2019-04-21T04:35:34.156Z,10.74
2019-04-21T04:38:00.848Z,10.80
2019-04-21T04:42:58.442Z,10.49
2019-04-21T04:45:34.498Z,10.71
2019-04-21T04:47:53.044Z,10.77
2019-04-21T04:50:17.853Z,10.76
2019-04-21T04:52:36.244Z,10.74
2019-04-21T05:00:18.201Z,10.66
2019-04-21T05:05:07.032Z,10.63
2019-04-21T05:09:47.250Z,10.71
2019-04-21T05:12:03.614Z,10.63
2019-04-21T05:14:39.259Z,10.88
2019-04-21T05:17:26.661Z,10.50
2019-04-21T05:21:48.024Z,10.56
2019-04-21T05:24:13.570Z,10.61
2019-04-21T05:26:33.334Z,10.69
2019-04-21T05:28:56.806Z,10.42
2019-04-21T05:31:38.827Z,10.81
2019-04-21T05:34:03.077Z,10.98
2019-04-21T05:36:30.956Z,11.07
2019-04-21T05:38:58.419Z,11.16
2019-04-21T05:41:20.629Z,11.44
2019-04-21T05:44:01.536Z,11.55
2019-04-21T05:46:25.504Z,11.71
2019-04-21T05:48:54.790Z,11.77
2019-04-21T05:51:21.085Z,11.76
2019-04-21T05:53:46.806Z,11.76
2019-04-21T05:56:17.357Z,11.82
2019-04-21T05:58:46.555Z,11.89
2019-04-21T06:03:47.761Z,11.97
2019-04-21T06:06:14.163Z,11.55
2019-04-21T06:08:34.299Z,11.63
2019-04-21T06:11:00.203Z,11.53
2019-04-21T06:13:26.893Z,12.12
2019-04-21T06:15:58.913Z,12.08
2019-04-21T06:18:21.773Z,12.31
2019-04-21T06:20:40.664Z,12.44
2019-04-21T06:23:13.546Z,12.59
2019-04-21T06:25:51.921Z,12.75
2019-04-21T06:28:03.587Z,12.63
2019-04-21T06:30:32.155Z,12.96
2019-04-21T06:32:52.621Z,12.89
2019-04-21T06:35:41.276Z,13.23
2019-04-21T06:37:59.798Z,13.23
2019-04-21T06:40:28.759Z,13.19
2019-04-21T06:43:08.284Z,13.26
2019-04-21T06:45:25.454Z,13.45
2019-04-21T06:50:10.724Z,13.53
2019-04-21T06:59:54.357Z,13.85
2019-04-21T07:02:36.237Z,13.93
2019-04-21T07:04:50.049Z,14.01
2019-04-21T07:07:14.485Z,13.85
2019-04-21T07:09:35.704Z,14.27
2019-04-21T07:11:59.913Z,14.06
2019-04-21T07:17:09.412Z,14.42
2019-04-21T07:19:30.429Z,14.36
2019-04-21T07:21:51.080Z,14.48
2019-04-21T07:24:21.840Z,14.77
2019-04-21T07:26:42.731Z,14.83
2019-04-21T07:29:14.360Z,14.89
2019-04-21T07:31:40.432Z,15.00
2019-04-21T07:34:25.133Z,15.14
2019-04-21T07:36:38.490Z,15.18
2019-04-21T07:38:49.765Z,15.28
2019-04-21T07:41:13.943Z,15.31
2019-04-21T07:43:39.371Z,15.35
2019-04-21T07:46:06.501Z,15.50
2019-04-21T07:48:37.605Z,15.34
2019-04-21T07:51:25.164Z,15.63
2019-04-21T07:53:55.742Z,15.68
2019-04-21T07:56:06.546Z,15.85
2019-04-21T07:58:49.061Z,15.91
2019-04-21T08:01:12.431Z,16.00
2019-04-21T08:03:38.921Z,16.01
2019-04-21T08:06:06.600Z,15.79
2019-04-21T08:08:26.805Z,16.08
2019-04-21T08:10:50.952Z,16.16
2019-04-21T08:13:31.309Z,16.39
2019-04-21T08:16:09.416Z,16.43
2019-04-21T08:18:12.921Z,16.63
2019-04-21T08:20:34.677Z,16.75
2019-04-21T08:23:05.565Z,16.78
2019-04-21T08:25:41.630Z,16.65
2019-04-21T08:28:01.453Z,16.75
2019-04-21T08:30:32.049Z,16.89
2019-04-21T08:33:02.301Z,17.07
2019-04-21T08:37:44.350Z,17.28
2019-04-21T08:40:17.643Z,17.20
2019-04-21T08:42:38.725Z,17.31
2019-04-21T08:45:10.780Z,17.58
2019-04-21T08:47:33.639Z,17.56
2019-04-21T08:50:00.975Z,17.51
2019-04-21T08:54:57.145Z,17.96
2019-04-21T08:57:33.211Z,18.05
2019-04-21T08:59:59.842Z,18.11
2019-04-21T09:02:29.548Z,18.30
2019-04-21T09:04:52.745Z,18.46
2019-04-21T09:07:19.633Z,18.43
2019-04-21T09:10:00.823Z,18.66
2019-04-21T09:12:10.820Z,18.92
2019-04-21T09:14:36.622Z,18.98
2019-04-21T09:16:56.446Z,19.03
2019-04-21T09:19:41.269Z,19.17
2019-04-21T09:21:55.085Z,19.50
2019-04-21T09:24:22.030Z,19.45
2019-04-21T09:26:48.081Z,19.51
2019-04-21T09:29:04.258Z,19.74
2019-04-21T09:31:25.984Z,19.95
2019-04-21T09:33:50.847Z,20.17
2019-04-21T09:36:18.050Z,20.19
2019-04-21T09:38:43.517Z,19.74
2019-04-21T09:41:06.650Z,20.18
2019-04-21T09:43:41.221Z,20.36
2019-04-21T09:45:58.872Z,20.55
2019-04-21T09:48:24.746Z,20.81
2019-04-21T09:50:50.405Z,20.65
2019-04-21T09:53:24.983Z,20.59
2019-04-21T09:55:48.706Z,21.01
2019-04-21T09:58:18.366Z,21.29
2019-04-21T10:00:45.719Z,21.27
2019-04-21T10:03:06.707Z,21.36
2019-04-21T10:05:27.349Z,21.16
2019-04-21T10:07:53.030Z,21.76
2019-04-21T10:10:17.720Z,21.42
2019-04-21T10:12:43.381Z,21.58
2019-04-21T10:15:08.636Z,21.80
2019-04-21T10:17:35.101Z,22.13
2019-04-21T10:20:00.759Z,22.11
2019-04-21T10:22:26.586Z,22.48
2019-04-21T10:24:52.154Z,21.97
2019-04-21T10:27:17.199Z,21.71
2019-04-21T10:29:44.577Z,22.30
2019-04-21T10:32:09.189Z,22.66
2019-04-21T10:34:34.864Z,22.74
2019-04-21T10:37:00.749Z,22.90
2019-04-21T10:39:25.470Z,23.01
2019-04-21T10:41:51.146Z,22.71
2019-04-21T10:44:17.015Z,23.36
2019-04-21T10:46:42.832Z,22.90
2019-04-21T10:49:08.650Z,23.51
2019-04-21T10:51:33.218Z,23.60
2019-04-21T10:53:58.002Z,23.37
2019-04-21T10:56:29.766Z,23.50
2019-04-21T10:58:50.014Z,23.96
2019-04-21T11:01:16.797Z,23.91
2019-04-21T11:03:43.109Z,23.50
2019-04-21T11:06:12.674Z,23.94
2019-04-21T11:08:41.544Z,24.20
2019-04-21T11:11:05.750Z,24.46
2019-04-21T11:13:30.746Z,24.67
2019-04-21T11:15:55.466Z,24.69
2019-04-21T11:18:19.927Z,24.15
2019-04-21T11:20:44.801Z,24.42
2019-04-21T11:23:10.198Z,24.97
2019-04-21T11:25:35.894Z,24.63
2019-04-21T11:28:00.853Z,24.63
2019-04-21T11:30:25.631Z,24.50
2019-04-21T11:32:51.122Z,24.91
2019-04-21T11:35:17.132Z,25.48
2019-04-21T11:37:42.111Z,25.59
2019-04-21T11:40:12.244Z,25.37
2019-04-21T11:42:35.721Z,25.37
2019-04-21T11:45:00.685Z,25.33
2019-04-21T11:47:30.341Z,25.33
2019-04-21T11:49:55.445Z,26.01
2019-04-21T11:52:20.777Z,25.80
2019-04-21T11:54:46.739Z,25.68
2019-04-21T11:57:15.178Z,25.67
2019-04-21T11:59:37.634Z,25.66
2019-04-21T12:02:03.447Z,25.66
2019-04-21T12:04:29.451Z,26.15
2019-04-21T12:06:55.644Z,26.62
2019-04-21T12:09:20.988Z,25.98
2019-04-21T12:11:45.845Z,26.52
2019-04-21T12:14:10.451Z,26.87
2019-04-21T12:16:35.243Z,26.42
2019-04-21T12:19:00.948Z,26.61
2019-04-21T12:21:28.345Z,26.64
2019-04-21T12:23:52.396Z,27.09
2019-04-21T12:26:18.053Z,27.34
2019-04-21T12:28:43.938Z,27.51
2019-04-21T12:31:11.555Z,27.37
2019-04-21T12:33:56.357Z,27.24
2019-04-21T12:36:21.985Z,27.37
2019-04-21T12:38:50.861Z,27.61
2019-04-21T12:41:13.073Z,27.15
2019-04-21T12:43:38.919Z,27.70
2019-04-21T12:46:04.370Z,27.75
2019-04-21T12:48:29.638Z,27.79
2019-04-21T12:50:54.336Z,28.08
2019-04-21T12:53:19.345Z,27.69
2019-04-21T12:55:46.207Z,27.92
2019-04-21T12:58:11.043Z,28.36
2019-04-21T13:00:36.750Z,27.37
2019-04-21T13:03:01.593Z,28.02
2019-04-21T13:05:27.495Z,28.14
2019-04-21T13:07:53.359Z,27.87
2019-04-21T13:10:20.246Z,28.45
2019-04-21T13:12:45.893Z,28.54
2019-04-21T13:15:10.915Z,28.15
2019-04-21T13:17:35.490Z,28.28
2019-04-21T13:20:01.159Z,28.49
2019-04-21T13:22:26.091Z,28.80
2019-04-21T13:24:51.704Z,28.71
2019-04-21T13:27:17.743Z,29.01
2019-04-21T13:29:42.437Z,28.68
2019-04-21T13:32:08.835Z,28.19
2019-04-21T13:34:33.776Z,28.79
2019-04-21T13:36:59.337Z,28.70
2019-04-21T13:39:50.268Z,28.83
2019-04-21T13:42:06.479Z,29.08
2019-04-21T13:44:23.448Z,27.37
2019-04-21T13:46:49.218Z,29.00
2019-04-21T13:49:13.981Z,28.81
2019-04-21T13:51:38.754Z,29.45
2019-04-21T13:54:04.041Z,29.04
2019-04-21T13:56:28.957Z,29.81
2019-04-21T13:58:53.659Z,29.78
2019-04-21T14:01:18.218Z,29.54
2019-04-21T14:03:43.940Z,29.60
2019-04-21T14:06:08.636Z,29.77
2019-04-21T14:08:33.468Z,29.53
2019-04-21T14:10:59.710Z,28.98
2019-04-21T14:13:24.715Z,29.29
2019-04-21T14:15:51.418Z,29.33
2019-04-21T14:18:15.652Z,29.77
2019-04-21T14:20:40.273Z,29.39
2019-04-21T14:23:15.792Z,29.72
2019-04-21T14:25:32.059Z,29.89
2019-04-21T14:27:57.888Z,29.48
2019-04-21T14:30:24.164Z,29.77
2019-04-21T14:32:49.889Z,29.53
2019-04-21T14:35:14.844Z,30.10
2019-04-21T14:37:40.431Z,29.97
2019-04-21T14:40:10.756Z,29.30
2019-04-21T14:42:33.998Z,29.09
2019-04-21T14:44:58.904Z,29.81
2019-04-21T14:47:31.513Z,29.06
2019-04-21T14:50:00.751Z,29.54
2019-04-21T14:52:26.923Z,29.98
2019-04-21T14:54:54.323Z,27.92
2019-04-21T14:57:19.048Z,27.55
2019-04-21T14:59:44.872Z,28.84
2019-04-21T15:02:09.897Z,28.66
2019-04-21T15:04:35.646Z,29.53
2019-04-21T15:07:01.305Z,29.27
2019-04-21T15:09:27.164Z,29.85
2019-04-21T15:11:52.001Z,29.72
2019-04-21T15:14:17.856Z,29.63
2019-04-21T15:16:42.884Z,28.52
2019-04-21T15:19:08.632Z,29.58
2019-04-21T15:21:33.451Z,28.30
2019-04-21T15:23:58.289Z,28.93
2019-04-21T15:26:24.117Z,29.09
2019-04-21T15:28:48.985Z,29.46
2019-04-21T15:31:20.493Z,29.13
2019-04-21T15:33:41.127Z,29.14
2019-04-21T15:36:07.052Z,29.01
2019-04-21T15:38:31.893Z,28.51
2019-04-21T15:41:00.738Z,29.01
2019-04-21T15:43:22.901Z,29.44
2019-04-21T15:45:48.689Z,28.99
2019-04-21T15:48:14.023Z,28.55
2019-04-21T15:50:39.801Z,28.53
2019-04-21T15:53:12.021Z,28.70
2019-04-21T15:55:53.193Z,28.68
2019-04-21T15:58:36.778Z,28.78
2019-04-21T16:01:02.956Z,28.60
2019-04-21T16:03:28.935Z,28.91
2019-04-21T16:05:53.756Z,29.02
2019-04-21T16:08:18.348Z,28.44
2019-04-21T16:10:48.964Z,28.37
2019-04-21T16:13:09.774Z,28.68
2019-04-21T16:15:34.716Z,28.37
2019-04-21T16:17:59.442Z,28.11
2019-04-21T16:20:24.203Z,28.28
2019-04-21T16:22:50.618Z,28.29
2019-04-21T16:25:16.922Z,28.44
2019-04-21T16:27:41.623Z,28.60
2019-04-21T16:30:08.256Z,28.33
2019-04-21T16:32:34.144Z,28.20
2019-04-21T16:35:03.869Z,28.18
2019-04-21T16:37:25.682Z,28.20
2019-04-21T16:39:51.586Z,27.74
2019-04-21T16:42:16.308Z,27.38
2019-04-21T16:44:41.041Z,27.87
2019-04-21T16:47:07.634Z,27.91
2019-04-21T16:49:33.608Z,27.59
2019-04-21T16:52:10.040Z,27.79
2019-04-21T16:54:35.683Z,27.57
2019-04-21T16:57:01.938Z,27.43
2019-04-21T16:59:28.714Z,27.39
2019-04-21T17:01:54.445Z,27.34
2019-04-21T17:04:20.339Z,27.49
2019-04-21T17:06:45.196Z,27.36
2019-04-21T17:09:10.650Z,27.05
2019-04-21T17:11:37.643Z,27.09
2019-04-21T17:14:01.598Z,27.15
2019-04-21T17:17:13.926Z,26.99
2019-04-21T17:19:01.747Z,26.61
2019-04-21T17:21:19.395Z,26.70
2019-04-21T17:23:44.268Z,26.23
2019-04-21T17:26:08.997Z,26.68
2019-04-21T17:28:34.365Z,26.64
2019-04-21T17:31:00.109Z,26.47
2019-04-21T17:33:28.037Z,26.39
2019-04-21T17:35:51.243Z,26.39
2019-04-21T17:38:16.380Z,26.42
2019-04-21T17:40:42.099Z,26.41
2019-04-21T17:43:10.574Z,26.26
2019-04-21T17:45:33.124Z,26.27
2019-04-21T17:48:03.297Z,26.17
2019-04-21T17:50:43.807Z,26.00
2019-04-21T17:53:12.421Z,25.84
2019-04-21T17:55:40.628Z,25.71
2019-04-21T17:58:22.982Z,25.58
2019-04-21T18:01:10.366Z,25.56
2019-04-21T18:03:39.274Z,25.41
2019-04-21T18:05:52.785Z,25.38
2019-04-21T18:08:18.527Z,25.29
2019-04-21T18:10:42.225Z,25.33
2019-04-21T18:13:04.477Z,25.20
2019-04-21T18:15:40.191Z,25.13
2019-04-21T18:17:48.453Z,25.06
2019-04-21T18:20:15.206Z,25.02
2019-04-21T18:22:45.492Z,24.95
2019-04-21T18:25:25.362Z,24.69
2019-04-21T18:27:38.642Z,24.61
2019-04-21T18:30:06.452Z,24.51
2019-04-21T18:32:36.123Z,24.48
2019-04-21T18:35:13.454Z,24.44
2019-04-21T18:37:45.800Z,24.30
2019-04-21T18:40:15.323Z,24.26
2019-04-21T18:42:53.238Z,24.17
2019-04-21T18:48:04.904Z,23.81
2019-04-21T18:50:41.686Z,23.81
2019-04-21T18:53:11.999Z,23.72
2019-04-21T18:55:35.467Z,23.68
2019-04-21T18:57:56.423Z,23.63
2019-04-21T19:00:26.422Z,23.46
2019-04-21T19:02:52.918Z,23.31
2019-04-21T19:05:17.585Z,23.26
2019-04-21T19:07:57.264Z,23.25
2019-04-21T19:10:29.571Z,23.07
2019-04-21T19:13:21.551Z,23.11
2019-04-21T19:15:16.318Z,23.11
2019-04-21T19:20:18.023Z,22.97
2019-04-21T19:22:38.429Z,22.79
2019-04-21T19:25:05.388Z,22.85
2019-04-21T19:27:28.703Z,22.70
2019-04-21T19:30:05.652Z,22.63
2019-04-21T19:32:25.285Z,22.54
2019-04-21T19:34:34.776Z,22.47
2019-04-21T19:37:04.212Z,22.38
2019-04-21T19:39:39.382Z,22.31
2019-04-21T19:42:00.432Z,22.19
2019-04-21T19:44:33.564Z,22.32
2019-04-21T19:47:08.411Z,22.10
2019-04-21T19:49:35.139Z,22.14
2019-04-21T19:51:46.233Z,22.05
2019-04-21T19:54:11.008Z,21.93
2019-04-21T19:56:27.935Z,22.01
2019-04-21T19:58:52.953Z,21.76
2019-04-21T20:01:17.521Z,21.88
2019-04-21T20:03:44.123Z,21.80
2019-04-21T20:06:14.908Z,21.76
2019-04-21T20:08:49.861Z,21.65
2019-04-21T20:11:19.336Z,21.55
2019-04-21T20:14:18.222Z,21.40
2019-04-21T20:16:12.883Z,21.47
2019-04-21T20:18:27.279Z,21.40
2019-04-21T20:20:46.076Z,21.45
2019-04-21T20:23:16.977Z,21.42
2019-04-21T20:25:43.706Z,21.10
2019-04-21T20:28:14.646Z,21.17
2019-04-21T20:30:53.313Z,21.26
2019-04-21T20:33:33.400Z,21.08
2019-04-21T20:35:46.889Z,20.81
2019-04-21T20:38:02.261Z,20.68
2019-04-21T20:40:27.950Z,20.45
2019-04-21T20:42:54.088Z,20.36
2019-04-21T20:47:43.310Z,20.38
2019-04-21T20:50:16.538Z,20.28
2019-04-21T20:52:48.080Z,20.10
2019-04-21T20:55:04.814Z,20.32
2019-04-21T20:57:37.910Z,20.36
2019-04-21T21:00:08.764Z,20.00
2019-04-21T21:02:36.567Z,19.76
2019-04-21T21:04:46.888Z,19.77
2019-04-21T21:07:34.667Z,19.87
2019-04-21T21:09:57.450Z,19.89
2019-04-21T21:12:34.584Z,19.69
2019-04-21T21:14:42.568Z,19.75
2019-04-21T21:17:13.258Z,19.60
2019-04-21T21:19:39.694Z,19.56
2019-04-21T21:21:57.617Z,19.28
2019-04-21T21:24:38.794Z,19.25
2019-04-21T21:26:54.601Z,19.31
2019-04-21T21:29:25.320Z,19.13
2019-04-21T21:31:47.417Z,18.79
2019-04-21T21:34:16.518Z,18.98
2019-04-21T21:36:42.831Z,18.82
2019-04-21T21:39:10.069Z,18.91
2019-04-21T21:41:23.512Z,18.96
2019-04-21T21:43:42.193Z,18.87
2019-04-21T21:46:26.646Z,18.78
2019-04-21T21:48:47.536Z,18.84
2019-04-21T21:51:05.931Z,18.71
2019-04-21T21:53:28.822Z,18.52
2019-04-21T21:55:52.989Z,18.91
2019-04-21T21:58:25.105Z,19.04
2019-04-21T22:00:49.983Z,19.00
2019-04-21T22:03:19.619Z,18.60
2019-04-21T22:05:48.258Z,18.60
2019-04-21T22:08:04.731Z,18.64
2019-04-21T22:10:29.504Z,18.50
2019-04-21T22:13:02.721Z,18.22
2019-04-21T22:15:24.946Z,18.59
2019-04-21T22:18:07.382Z,18.50
2019-04-21T22:20:33.062Z,18.54
2019-04-21T22:22:48.706Z,18.62
2019-04-21T22:25:12.740Z,18.67
2019-04-21T22:27:33.170Z,18.76
2019-04-21T22:30:01.336Z,18.63
2019-04-21T22:32:28.696Z,18.54
2019-04-21T22:34:54.746Z,18.58
2019-04-21T22:37:30.703Z,18.57
2019-04-21T22:39:57.801Z,18.52
2019-04-21T22:42:17.966Z,18.44
2019-04-21T22:44:36.352Z,18.37
2019-04-21T22:47:11.005Z,18.40
2019-04-21T22:49:28.460Z,18.32
2019-04-21T22:51:53.844Z,18.37
2019-04-21T22:54:25.729Z,18.38
2019-04-21T22:56:56.566Z,18.28
2019-04-21T22:59:15.946Z,18.31
2019-04-21T23:01:42.422Z,18.16
2019-04-21T23:04:06.730Z,18.23
2019-04-21T23:06:34.344Z,18.21
2019-04-21T23:08:57.242Z,18.11
2019-04-21T23:11:21.775Z,18.23
2019-04-21T23:13:54.506Z,18.04
2019-04-21T23:16:13.931Z,17.98
2019-04-21T23:18:54.420Z,17.96
2019-04-21T23:21:23.081Z,17.89
2019-04-21T23:23:51.750Z,17.90
2019-04-21T23:26:18.209Z,17.78
2019-04-21T23:28:45.470Z,17.81
2019-04-21T23:31:12.348Z,17.67
2019-04-21T23:33:20.214Z,17.62
2019-04-21T23:35:46.018Z,17.47
2019-04-21T23:38:10.975Z,17.56
2019-04-21T23:40:40.690Z,17.62
2019-04-21T23:43:09.294Z,17.62
2019-04-21T23:45:35.826Z,17.55
2019-04-21T23:48:10.742Z,17.34
2019-04-21T23:50:33.034Z,17.35
2019-04-21T23:52:47.799Z,17.40
2019-04-21T23:55:13.558Z,17.40
2019-04-21T23:57:43.223Z,17.34
